Ferrum, Virginia
Current Conditions -  °F | °C
As of 1:15 AM on Monday 22 Dec 2014 (Local Time) from KMTV Reporting Station
Overcast Overcast  
Wind Chill: 36°   Ceiling: 2800
Heat Index: 40°   Visibility: 10mi
Dew Point: 32°   Wind: 6mph
Humidity: 74%   Direction: 40°NE
Pressure: 30.24"   Gusts: NA
Location:  36.92°N, 80.01°W
Report Text: KMTV 220615Z AUTO 04005KT 10SM OVC028 04/00 A3024 RMK AO2 T00430000
Loading
Personal Weather Stations






























Interactive Weather Map New forecast layout! Learn more

10-Day Weather Forecast

Advertisements
Track Severe Weather on mobile